sensor_id;sensor_type;location;lat;lon;timestamp;temperature;humidity
4002;DHT22;2015;48.670;9.060;2023-09-19T00:01:35;15.90;99.90
4002;DHT22;2015;48.670;9.060;2023-09-19T00:04:10;15.90;99.90
4002;DHT22;2015;48.670;9.060;2023-09-19T00:06:42;15.90;99.90
4002;DHT22;2015;48.670;9.060;2023-09-19T00:09:15;15.80;99.90
4002;DHT22;2015;48.670;9.060;2023-09-19T00:11:49;15.80;99.90
4002;DHT22;2015;48.670;9.060;2023-09-19T00:14:25;15.80;99.90
4002;DHT22;2015;48.670;9.060;2023-09-19T00:16:56;15.80;99.90
4002;DHT22;2015;48.670;9.060;2023-09-19T00:19:29;15.70;99.90
4002;DHT22;2015;48.670;9.060;2023-09-19T00:22:01;15.70;99.90
4002;DHT22;2015;48.670;9.060;2023-09-19T00:24:33;15.80;99.90
4002;DHT22;2015;48.670;9.060;2023-09-19T00:27:04;15.80;99.90
4002;DHT22;2015;48.670;9.060;2023-09-19T00:29:37;15.80;99.90
4002;DHT22;2015;48.670;9.060;2023-09-19T00:32:09;15.80;99.90
4002;DHT22;2015;48.670;9.060;2023-09-19T00:34:41;15.80;99.90
4002;DHT22;2015;48.670;9.060;2023-09-19T00:37:14;15.80;99.90
4002;DHT22;2015;48.670;9.060;2023-09-19T00:39:46;15.80;99.90
4002;DHT22;2015;48.670;9.060;2023-09-19T00:42:22;15.80;99.90
4002;DHT22;2015;48.670;9.060;2023-09-19T00:44:54;15.80;99.90
4002;DHT22;2015;48.670;9.060;2023-09-19T00:47:25;15.70;99.90
4002;DHT22;2015;48.670;9.060;2023-09-19T00:49:59;15.70;99.90
4002;DHT22;2015;48.670;9.060;2023-09-19T00:52:31;15.70;99.90
4002;DHT22;2015;48.670;9.060;2023-09-19T00:55:05;15.70;99.90
4002;DHT22;2015;48.670;9.060;2023-09-19T00:57:38;15.60;99.90
4002;DHT22;2015;48.670;9.060;2023-09-19T01:00:10;15.60;99.90
4002;DHT22;2015;48.670;9.060;2023-09-19T01:02:46;15.60;99.90
4002;DHT22;2015;48.670;9.060;2023-09-19T01:05:19;15.60;99.90
4002;DHT22;2015;48.670;9.060;2023-09-19T01:07:51;15.60;99.90
4002;DHT22;2015;48.670;9.060;2023-09-19T01:10:25;15.60;99.90
4002;DHT22;2015;48.670;9.060;2023-09-19T01:15:55;15.60;99.90
4002;DHT22;2015;48.670;9.060;2023-09-19T01:18:51;15.60;99.90
4002;DHT22;2015;48.670;9.060;2023-09-19T01:22:37;15.60;99.90
4002;DHT22;2015;48.670;9.060;2023-09-19T01:25:20;15.60;99.90
4002;DHT22;2015;48.670;9.060;2023-09-19T01:30:52;15.60;99.90
4002;DHT22;2015;48.670;9.060;2023-09-19T01:33:59;15.60;99.90
4002;DHT22;2015;48.670;9.060;2023-09-19T01:36:33;15.50;99.90
4002;DHT22;2015;48.670;9.060;2023-09-19T01:39:11;15.60;99.90
4002;DHT22;2015;48.670;9.060;2023-09-19T01:42:12;15.60;99.90
4002;DHT22;2015;48.670;9.060;2023-09-19T01:47:26;15.60;99.90
4002;DHT22;2015;48.670;9.060;2023-09-19T01:53:10;15.60;99.90
4002;DHT22;2015;48.670;9.060;2023-09-19T01:55:48;15.60;99.90
4002;DHT22;2015;48.670;9.060;2023-09-19T01:58:35;15.60;99.90
4002;DHT22;2015;48.670;9.060;2023-09-19T02:01:13;15.60;99.90
4002;DHT22;2015;48.670;9.060;2023-09-19T02:03:48;15.60;99.90
4002;DHT22;2015;48.670;9.060;2023-09-19T02:06:21;15.60;99.90
4002;DHT22;2015;48.670;9.060;2023-09-19T02:08:54;15.50;99.90
4002;DHT22;2015;48.670;9.060;2023-09-19T02:11:25;15.50;99.90
4002;DHT22;2015;48.670;9.060;2023-09-19T02:13:57;15.50;99.90
4002;DHT22;2015;48.670;9.060;2023-09-19T02:16:30;15.40;99.90
4002;DHT22;2015;48.670;9.060;2023-09-19T02:19:02;15.40;99.90
4002;DHT22;2015;48.670;9.060;2023-09-19T02:21:37;15.40;99.90
4002;DHT22;2015;48.670;9.060;2023-09-19T02:24:11;15.30;99.90
4002;DHT22;2015;48.670;9.060;2023-09-19T02:26:44;15.30;99.90
4002;DHT22;2015;48.670;9.060;2023-09-19T02:29:15;15.30;99.90
4002;DHT22;2015;48.670;9.060;2023-09-19T02:31:47;15.20;99.90
4002;DHT22;2015;48.670;9.060;2023-09-19T02:34:19;15.20;99.90
4002;DHT22;2015;48.670;9.060;2023-09-19T02:36:51;15.20;99.90
4002;DHT22;2015;48.670;9.060;2023-09-19T02:39:25;15.10;99.90
4002;DHT22;2015;48.670;9.060;2023-09-19T02:41:56;15.10;99.90
4002;DHT22;2015;48.670;9.060;2023-09-19T02:44:28;15.10;99.90
4002;DHT22;2015;48.670;9.060;2023-09-19T02:47:00;15.10;99.90
4002;DHT22;2015;48.670;9.060;2023-09-19T02:49:32;15.00;99.90
4002;DHT22;2015;48.670;9.060;2023-09-19T02:52:04;15.00;99.90
4002;DHT22;2015;48.670;9.060;2023-09-19T02:54:37;15.00;99.90
4002;DHT22;2015;48.670;9.060;2023-09-19T02:57:08;15.00;99.90
4002;DHT22;2015;48.670;9.060;2023-09-19T02:59:41;15.10;99.90
4002;DHT22;2015;48.670;9.060;2023-09-19T03:02:13;15.20;99.90
4002;DHT22;2015;48.670;9.060;2023-09-19T03:04:45;15.20;99.90
4002;DHT22;2015;48.670;9.060;2023-09-19T03:07:18;15.30;99.90
4002;DHT22;2015;48.670;9.060;2023-09-19T03:09:50;15.30;99.90
4002;DHT22;2015;48.670;9.060;2023-09-19T03:12:24;15.30;99.90
4002;DHT22;2015;48.670;9.060;2023-09-19T03:14:56;15.40;99.90
4002;DHT22;2015;48.670;9.060;2023-09-19T03:17:27;15.40;99.90
4002;DHT22;2015;48.670;9.060;2023-09-19T03:19:59;15.40;99.90
4002;DHT22;2015;48.670;9.060;2023-09-19T03:22:31;15.40;99.90
4002;DHT22;2015;48.670;9.060;2023-09-19T03:25:04;15.50;99.90
4002;DHT22;2015;48.670;9.060;2023-09-19T03:27:39;15.50;99.90
4002;DHT22;2015;48.670;9.060;2023-09-19T03:30:11;15.60;99.90
4002;DHT22;2015;48.670;9.060;2023-09-19T03:32:46;15.60;99.90
4002;DHT22;2015;48.670;9.060;2023-09-19T03:35:19;15.70;99.90
4002;DHT22;2015;48.670;9.060;2023-09-19T03:37:51;15.70;99.90
4002;DHT22;2015;48.670;9.060;2023-09-19T03:40:24;15.70;99.90
4002;DHT22;2015;48.670;9.060;2023-09-19T03:43:00;15.70;99.90
4002;DHT22;2015;48.670;9.060;2023-09-19T03:45:33;15.70;99.90
4002;DHT22;2015;48.670;9.060;2023-09-19T03:48:09;15.70;99.90
4002;DHT22;2015;48.670;9.060;2023-09-19T03:50:41;15.80;99.90
4002;DHT22;2015;48.670;9.060;2023-09-19T03:53:15;15.70;99.90
4002;DHT22;2015;48.670;9.060;2023-09-19T03:55:47;15.70;99.90
4002;DHT22;2015;48.670;9.060;2023-09-19T03:58:19;15.70;99.90
4002;DHT22;2015;48.670;9.060;2023-09-19T04:00:53;15.70;99.90
4002;DHT22;2015;48.670;9.060;2023-09-19T04:03:26;15.60;99.90
4002;DHT22;2015;48.670;9.060;2023-09-19T04:06:06;15.60;99.90
4002;DHT22;2015;48.670;9.060;2023-09-19T04:08:38;15.50;99.90
4002;DHT22;2015;48.670;9.060;2023-09-19T04:11:10;15.40;99.90
4002;DHT22;2015;48.670;9.060;2023-09-19T04:13:42;15.30;99.90
4002;DHT22;2015;48.670;9.060;2023-09-19T04:16:14;15.30;99.90
4002;DHT22;2015;48.670;9.060;2023-09-19T04:18:46;15.30;99.90
4002;DHT22;2015;48.670;9.060;2023-09-19T04:21:17;15.20;99.90
4002;DHT22;2015;48.670;9.060;2023-09-19T04:23:49;15.20;99.90
4002;DHT22;2015;48.670;9.060;2023-09-19T04:26:21;15.30;99.90
4002;DHT22;2015;48.670;9.060;2023-09-19T04:28:53;15.30;99.90
4002;DHT22;2015;48.670;9.060;2023-09-19T04:31:25;15.30;99.90
4002;DHT22;2015;48.670;9.060;2023-09-19T04:33:57;15.40;99.90
4002;DHT22;2015;48.670;9.060;2023-09-19T04:36:30;15.40;99.90
4002;DHT22;2015;48.670;9.060;2023-09-19T04:39:07;15.40;99.90
4002;DHT22;2015;48.670;9.060;2023-09-19T04:41:39;15.40;99.90
4002;DHT22;2015;48.670;9.060;2023-09-19T04:44:12;15.40;99.90
4002;DHT22;2015;48.670;9.060;2023-09-19T04:46:45;15.40;99.90
4002;DHT22;2015;48.670;9.060;2023-09-19T04:49:18;15.50;99.90
4002;DHT22;2015;48.670;9.060;2023-09-19T04:51:50;15.50;99.90
4002;DHT22;2015;48.670;9.060;2023-09-19T04:54:22;15.60;99.90
4002;DHT22;2015;48.670;9.060;2023-09-19T04:56:54;15.60;99.90
4002;DHT22;2015;48.670;9.060;2023-09-19T04:59:26;15.60;99.90
4002;DHT22;2015;48.670;9.060;2023-09-19T05:01:58;15.70;99.90
4002;DHT22;2015;48.670;9.060;2023-09-19T05:04:30;15.70;99.90
4002;DHT22;2015;48.670;9.060;2023-09-19T05:07:02;15.70;99.90
4002;DHT22;2015;48.670;9.060;2023-09-19T05:09:35;15.70;99.90
4002;DHT22;2015;48.670;9.060;2023-09-19T05:12:08;15.60;99.90
4002;DHT22;2015;48.670;9.060;2023-09-19T05:14:42;15.50;99.90
4002;DHT22;2015;48.670;9.060;2023-09-19T05:17:13;15.50;99.90
4002;DHT22;2015;48.670;9.060;2023-09-19T05:19:48;15.40;99.90
4002;DHT22;2015;48.670;9.060;2023-09-19T05:22:20;15.40;99.90
4002;DHT22;2015;48.670;9.060;2023-09-19T05:24:52;15.40;99.90
4002;DHT22;2015;48.670;9.060;2023-09-19T05:27:24;15.30;99.90
4002;DHT22;2015;48.670;9.060;2023-09-19T05:29:56;15.30;99.90
4002;DHT22;2015;48.670;9.060;2023-09-19T05:32:27;15.30;99.90
4002;DHT22;2015;48.670;9.060;2023-09-19T05:34:59;15.30;99.90
4002;DHT22;2015;48.670;9.060;2023-09-19T05:37:31;15.30;99.90
4002;DHT22;2015;48.670;9.060;2023-09-19T05:40:03;15.30;99.90
4002;DHT22;2015;48.670;9.060;2023-09-19T05:42:38;15.20;99.90
4002;DHT22;2015;48.670;9.060;2023-09-19T05:45:13;15.30;99.90
4002;DHT22;2015;48.670;9.060;2023-09-19T05:47:45;15.30;99.90
4002;DHT22;2015;48.670;9.060;2023-09-19T05:50:18;15.30;99.90
4002;DHT22;2015;48.670;9.060;2023-09-19T05:52:52;15.40;99.90
4002;DHT22;2015;48.670;9.060;2023-09-19T05:55:24;15.40;99.90
4002;DHT22;2015;48.670;9.060;2023-09-19T05:57:56;15.40;99.90
4002;DHT22;2015;48.670;9.060;2023-09-19T06:00:28;15.50;99.90
4002;DHT22;2015;48.670;9.060;2023-09-19T06:03:03;15.50;99.90
4002;DHT22;2015;48.670;9.060;2023-09-19T06:05:35;15.50;99.90
4002;DHT22;2015;48.670;9.060;2023-09-19T06:08:07;15.50;99.90
4002;DHT22;2015;48.670;9.060;2023-09-19T06:10:39;15.50;99.90
4002;DHT22;2015;48.670;9.060;2023-09-19T06:13:11;15.50;99.90
4002;DHT22;2015;48.670;9.060;2023-09-19T06:15:43;15.50;99.90
4002;DHT22;2015;48.670;9.060;2023-09-19T06:18:15;15.40;99.90
4002;DHT22;2015;48.670;9.060;2023-09-19T06:20:51;15.40;99.90
4002;DHT22;2015;48.670;9.060;2023-09-19T06:23:23;15.40;99.90
4002;DHT22;2015;48.670;9.060;2023-09-19T06:25:55;15.30;99.90
4002;DHT22;2015;48.670;9.060;2023-09-19T06:28:28;15.20;99.90
4002;DHT22;2015;48.670;9.060;2023-09-19T06:31:02;15.20;99.90
4002;DHT22;2015;48.670;9.060;2023-09-19T06:33:34;15.10;99.90
4002;DHT22;2015;48.670;9.060;2023-09-19T06:36:07;15.00;99.90
4002;DHT22;2015;48.670;9.060;2023-09-19T06:38:39;15.10;99.90
4002;DHT22;2015;48.670;9.060;2023-09-19T06:41:11;15.20;99.90
4002;DHT22;2015;48.670;9.060;2023-09-19T06:43:43;15.30;99.90
4002;DHT22;2015;48.670;9.060;2023-09-19T06:46:15;15.20;99.90
4002;DHT22;2015;48.670;9.060;2023-09-19T06:48:47;15.20;99.90
4002;DHT22;2015;48.670;9.060;2023-09-19T06:51:19;15.30;99.90
4002;DHT22;2015;48.670;9.060;2023-09-19T06:53:51;15.30;99.90
4002;DHT22;2015;48.670;9.060;2023-09-19T06:56:26;15.30;99.90
4002;DHT22;2015;48.670;9.060;2023-09-19T06:58:57;15.50;99.90
4002;DHT22;2015;48.670;9.060;2023-09-19T07:01:29;15.50;99.90
4002;DHT22;2015;48.670;9.060;2023-09-19T07:04:01;15.60;99.90
4002;DHT22;2015;48.670;9.060;2023-09-19T07:06:33;15.70;99.90
4002;DHT22;2015;48.670;9.060;2023-09-19T07:09:04;15.80;99.90
4002;DHT22;2015;48.670;9.060;2023-09-19T07:11:36;15.90;99.90
4002;DHT22;2015;48.670;9.060;2023-09-19T07:14:08;15.90;99.90
4002;DHT22;2015;48.670;9.060;2023-09-19T07:16:43;16.00;99.90
4002;DHT22;2015;48.670;9.060;2023-09-19T07:19:16;16.00;99.90
4002;DHT22;2015;48.670;9.060;2023-09-19T07:21:48;16.00;99.90
4002;DHT22;2015;48.670;9.060;2023-09-19T07:24:22;16.10;99.90
4002;DHT22;2015;48.670;9.060;2023-09-19T07:26:55;16.20;99.90
4002;DHT22;2015;48.670;9.060;2023-09-19T07:29:27;16.20;99.90
4002;DHT22;2015;48.670;9.060;2023-09-19T07:31:59;16.30;99.90
4002;DHT22;2015;48.670;9.060;2023-09-19T07:34:31;16.40;99.90
4002;DHT22;2015;48.670;9.060;2023-09-19T07:37:02;16.50;99.90
4002;DHT22;2015;48.670;9.060;2023-09-19T07:39:34;16.50;99.90
4002;DHT22;2015;48.670;9.060;2023-09-19T07:42:06;16.60;99.90
4002;DHT22;2015;48.670;9.060;2023-09-19T07:44:39;16.60;99.90
4002;DHT22;2015;48.670;9.060;2023-09-19T07:47:10;16.70;99.90
4002;DHT22;2015;48.670;9.060;2023-09-19T07:49:47;16.70;99.90
4002;DHT22;2015;48.670;9.060;2023-09-19T07:52:19;16.80;99.90
4002;DHT22;2015;48.670;9.060;2023-09-19T07:54:54;16.70;99.90
4002;DHT22;2015;48.670;9.060;2023-09-19T07:57:26;16.70;99.90
4002;DHT22;2015;48.670;9.060;2023-09-19T07:59:58;16.80;99.90
4002;DHT22;2015;48.670;9.060;2023-09-19T08:02:35;16.90;99.90
4002;DHT22;2015;48.670;9.060;2023-09-19T08:05:12;16.90;99.90
4002;DHT22;2015;48.670;9.060;2023-09-19T08:07:47;17.00;99.90
4002;DHT22;2015;48.670;9.060;2023-09-19T08:10:20;17.20;99.90
4002;DHT22;2015;48.670;9.060;2023-09-19T08:12:52;17.30;99.90
4002;DHT22;2015;48.670;9.060;2023-09-19T08:15:29;17.40;99.90
4002;DHT22;2015;48.670;9.060;2023-09-19T08:18:01;17.60;99.90
4002;DHT22;2015;48.670;9.060;2023-09-19T08:20:33;17.70;99.90
4002;DHT22;2015;48.670;9.060;2023-09-19T08:23:06;17.70;99.90
4002;DHT22;2015;48.670;9.060;2023-09-19T08:25:39;17.70;99.90
4002;DHT22;2015;48.670;9.060;2023-09-19T08:28:11;17.80;99.90
4002;DHT22;2015;48.670;9.060;2023-09-19T08:30:46;17.90;99.90
4002;DHT22;2015;48.670;9.060;2023-09-19T08:33:17;18.00;99.90
4002;DHT22;2015;48.670;9.060;2023-09-19T08:35:49;18.00;99.90
4002;DHT22;2015;48.670;9.060;2023-09-19T08:38:21;17.90;99.90
4002;DHT22;2015;48.670;9.060;2023-09-19T08:40:52;17.80;99.90
4002;DHT22;2015;48.670;9.060;2023-09-19T08:43:24;17.90;99.90
4002;DHT22;2015;48.670;9.060;2023-09-19T08:46:20;18.00;99.90
4002;DHT22;2015;48.670;9.060;2023-09-19T08:49:02;18.20;99.90
4002;DHT22;2015;48.670;9.060;2023-09-19T08:51:43;18.30;99.90
4002;DHT22;2015;48.670;9.060;2023-09-19T08:54:25;18.30;99.90
4002;DHT22;2015;48.670;9.060;2023-09-19T08:57:00;18.40;99.90
4002;DHT22;2015;48.670;9.060;2023-09-19T08:59:38;18.50;99.90
4002;DHT22;2015;48.670;9.060;2023-09-19T09:02:12;18.50;99.90
4002;DHT22;2015;48.670;9.060;2023-09-19T09:04:45;18.40;99.90
4002;DHT22;2015;48.670;9.060;2023-09-19T09:07:18;18.40;99.90
4002;DHT22;2015;48.670;9.060;2023-09-19T09:09:50;18.40;99.90
4002;DHT22;2015;48.670;9.060;2023-09-19T09:12:23;18.40;99.90
4002;DHT22;2015;48.670;9.060;2023-09-19T09:14:55;18.40;99.90
4002;DHT22;2015;48.670;9.060;2023-09-19T09:17:29;18.20;99.90
4002;DHT22;2015;48.670;9.060;2023-09-19T09:20:01;18.20;99.90
4002;DHT22;2015;48.670;9.060;2023-09-19T09:22:33;19.00;99.90
4002;DHT22;2015;48.670;9.060;2023-09-19T09:25:05;19.80;99.90
4002;DHT22;2015;48.670;9.060;2023-09-19T09:27:40;20.10;99.90
4002;DHT22;2015;48.670;9.060;2023-09-19T09:30:32;20.10;99.90
4002;DHT22;2015;48.670;9.060;2023-09-19T09:33:11;19.60;99.90
4002;DHT22;2015;48.670;9.060;2023-09-19T09:36:03;19.20;99.90
4002;DHT22;2015;48.670;9.060;2023-09-19T09:38:44;18.90;99.90
4002;DHT22;2015;48.670;9.060;2023-09-19T09:41:17;18.70;99.90
4002;DHT22;2015;48.670;9.060;2023-09-19T09:44:15;18.80;99.90
4002;DHT22;2015;48.670;9.060;2023-09-19T09:46:48;19.80;99.90
4002;DHT22;2015;48.670;9.060;2023-09-19T09:49:27;20.20;99.90
4002;DHT22;2015;48.670;9.060;2023-09-19T09:52:07;20.10;99.90
4002;DHT22;2015;48.670;9.060;2023-09-19T09:54:59;21.30;99.90
4002;DHT22;2015;48.670;9.060;2023-09-19T09:57:33;22.00;99.90
4002;DHT22;2015;48.670;9.060;2023-09-19T10:00:05;22.10;99.90
4002;DHT22;2015;48.670;9.060;2023-09-19T10:02:43;22.40;99.90
4002;DHT22;2015;48.670;9.060;2023-09-19T10:05:20;23.10;99.90
4002;DHT22;2015;48.670;9.060;2023-09-19T10:07:52;24.30;99.90
4002;DHT22;2015;48.670;9.060;2023-09-19T10:10:40;25.60;99.90
4002;DHT22;2015;48.670;9.060;2023-09-19T10:13:15;27.20;99.90
4002;DHT22;2015;48.670;9.060;2023-09-19T10:15:51;28.20;99.90
4002;DHT22;2015;48.670;9.060;2023-09-19T10:18:26;28.60;99.90
4002;DHT22;2015;48.670;9.060;2023-09-19T10:21:02;28.80;99.90
4002;DHT22;2015;48.670;9.060;2023-09-19T10:23:36;29.30;99.90
4002;DHT22;2015;48.670;9.060;2023-09-19T10:26:09;29.70;99.90
4002;DHT22;2015;48.670;9.060;2023-09-19T10:28:41;29.90;98.40
4002;DHT22;2015;48.670;9.060;2023-09-19T10:31:19;27.50;99.90
4002;DHT22;2015;48.670;9.060;2023-09-19T10:33:53;26.70;99.90
4002;DHT22;2015;48.670;9.060;2023-09-19T10:36:27;26.30;99.90
4002;DHT22;2015;48.670;9.060;2023-09-19T10:39:06;26.00;99.90
4002;DHT22;2015;48.670;9.060;2023-09-19T10:41:40;26.10;99.90
4002;DHT22;2015;48.670;9.060;2023-09-19T10:44:12;26.80;99.90
4002;DHT22;2015;48.670;9.060;2023-09-19T10:46:45;26.50;99.90
4002;DHT22;2015;48.670;9.060;2023-09-19T10:49:18;25.50;99.90
4002;DHT22;2015;48.670;9.060;2023-09-19T10:51:54;24.70;99.90
4002;DHT22;2015;48.670;9.060;2023-09-19T10:54:32;25.50;99.90
4002;DHT22;2015;48.670;9.060;2023-09-19T10:57:09;26.50;99.90
4002;DHT22;2015;48.670;9.060;2023-09-19T11:00:00;26.80;99.90
4002;DHT22;2015;48.670;9.060;2023-09-19T11:02:34;26.70;99.90
4002;DHT22;2015;48.670;9.060;2023-09-19T11:05:12;26.40;99.90
4002;DHT22;2015;48.670;9.060;2023-09-19T11:07:57;25.60;99.90
4002;DHT22;2015;48.670;9.060;2023-09-19T11:10:45;24.70;99.90
4002;DHT22;2015;48.670;9.060;2023-09-19T11:13:28;24.40;99.90
4002;DHT22;2015;48.670;9.060;2023-09-19T11:16:04;24.40;99.90
4002;DHT22;2015;48.670;9.060;2023-09-19T11:21:38;25.30;99.90
4002;DHT22;2015;48.670;9.060;2023-09-19T11:27:23;23.50;99.90
4002;DHT22;2015;48.670;9.060;2023-09-19T11:30:26;22.80;99.90
4002;DHT22;2015;48.670;9.060;2023-09-19T11:33:35;22.30;99.90
4002;DHT22;2015;48.670;9.060;2023-09-19T11:36:14;21.60;99.90
4002;DHT22;2015;48.670;9.060;2023-09-19T11:49:29;21.00;99.90
4002;DHT22;2015;48.670;9.060;2023-09-19T11:52:04;21.00;99.90
4002;DHT22;2015;48.670;9.060;2023-09-19T11:54:40;21.00;99.90
4002;DHT22;2015;48.670;9.060;2023-09-19T11:57:20;21.10;99.90
4002;DHT22;2015;48.670;9.060;2023-09-19T11:59:52;21.30;99.90
4002;DHT22;2015;48.670;9.060;2023-09-19T12:02:39;21.30;99.90
4002;DHT22;2015;48.670;9.060;2023-09-19T12:05:12;21.40;99.90
4002;DHT22;2015;48.670;9.060;2023-09-19T12:07:44;21.50;99.90
4002;DHT22;2015;48.670;9.060;2023-09-19T12:10:19;21.60;99.90
4002;DHT22;2015;48.670;9.060;2023-09-19T12:12:54;21.50;99.90
4002;DHT22;2015;48.670;9.060;2023-09-19T12:15:28;21.20;99.90
4002;DHT22;2015;48.670;9.060;2023-09-19T12:18:05;20.90;99.90
4002;DHT22;2015;48.670;9.060;2023-09-19T12:20:44;20.90;99.90
4002;DHT22;2015;48.670;9.060;2023-09-19T12:23:21;20.80;99.90
4002;DHT22;2015;48.670;9.060;2023-09-19T12:25:54;20.70;99.90
4002;DHT22;2015;48.670;9.060;2023-09-19T12:28:28;20.90;99.90
4002;DHT22;2015;48.670;9.060;2023-09-19T12:31:08;21.00;99.90
4002;DHT22;2015;48.670;9.060;2023-09-19T12:33:40;21.10;99.90
4002;DHT22;2015;48.670;9.060;2023-09-19T12:36:23;21.00;99.90
4002;DHT22;2015;48.670;9.060;2023-09-19T12:39:01;21.10;99.90
4002;DHT22;2015;48.670;9.060;2023-09-19T12:41:40;21.10;99.90
4002;DHT22;2015;48.670;9.060;2023-09-19T12:44:12;21.30;99.90
4002;DHT22;2015;48.670;9.060;2023-09-19T12:46:44;21.30;99.90
4002;DHT22;2015;48.670;9.060;2023-09-19T12:49:20;21.30;99.90
4002;DHT22;2015;48.670;9.060;2023-09-19T12:51:54;21.30;99.90
4002;DHT22;2015;48.670;9.060;2023-09-19T12:54:38;21.30;99.90
4002;DHT22;2015;48.670;9.060;2023-09-19T12:57:23;21.50;99.90
4002;DHT22;2015;48.670;9.060;2023-09-19T12:59:56;21.50;99.90
4002;DHT22;2015;48.670;9.060;2023-09-19T13:02:29;21.50;99.90
4002;DHT22;2015;48.670;9.060;2023-09-19T13:05:01;21.60;99.90
4002;DHT22;2015;48.670;9.060;2023-09-19T13:07:45;21.60;99.90
4002;DHT22;2015;48.670;9.060;2023-09-19T13:10:18;21.70;99.90
4002;DHT22;2015;48.670;9.060;2023-09-19T13:12:55;21.60;99.90
4002;DHT22;2015;48.670;9.060;2023-09-19T13:15:55;21.40;99.90
4002;DHT22;2015;48.670;9.060;2023-09-19T13:18:29;21.40;99.90
4002;DHT22;2015;48.670;9.060;2023-09-19T13:21:08;21.40;99.90
4002;DHT22;2015;48.670;9.060;2023-09-19T13:23:46;21.30;99.90
4002;DHT22;2015;48.670;9.060;2023-09-19T13:26:18;21.30;99.90
4002;DHT22;2015;48.670;9.060;2023-09-19T13:28:51;21.30;99.90
4002;DHT22;2015;48.670;9.060;2023-09-19T13:31:22;21.40;99.90
4002;DHT22;2015;48.670;9.060;2023-09-19T13:33:55;21.40;99.90
4002;DHT22;2015;48.670;9.060;2023-09-19T13:36:27;21.50;99.90
4002;DHT22;2015;48.670;9.060;2023-09-19T13:38:59;21.50;99.90
4002;DHT22;2015;48.670;9.060;2023-09-19T13:41:31;21.60;99.90
4002;DHT22;2015;48.670;9.060;2023-09-19T13:44:04;21.60;99.90
4002;DHT22;2015;48.670;9.060;2023-09-19T13:46:36;21.40;99.90
4002;DHT22;2015;48.670;9.060;2023-09-19T13:49:08;21.40;99.90
4002;DHT22;2015;48.670;9.060;2023-09-19T13:51:41;21.40;99.90
4002;DHT22;2015;48.670;9.060;2023-09-19T13:54:15;21.30;99.90
4002;DHT22;2015;48.670;9.060;2023-09-19T13:56:47;21.20;99.90
4002;DHT22;2015;48.670;9.060;2023-09-19T13:59:19;21.10;99.90
4002;DHT22;2015;48.670;9.060;2023-09-19T14:01:52;21.10;99.90
4002;DHT22;2015;48.670;9.060;2023-09-19T14:04:25;21.00;99.90
4002;DHT22;2015;48.670;9.060;2023-09-19T14:06:57;21.00;99.90
4002;DHT22;2015;48.670;9.060;2023-09-19T14:09:29;21.00;99.90
4002;DHT22;2015;48.670;9.060;2023-09-19T14:12:01;20.90;99.90
4002;DHT22;2015;48.670;9.060;2023-09-19T14:14:33;21.10;99.90
4002;DHT22;2015;48.670;9.060;2023-09-19T14:17:04;21.20;99.90
4002;DHT22;2015;48.670;9.060;2023-09-19T14:19:41;21.30;99.90
4002;DHT22;2015;48.670;9.060;2023-09-19T14:22:17;21.30;99.90
4002;DHT22;2015;48.670;9.060;2023-09-19T14:24:48;21.30;99.90
4002;DHT22;2015;48.670;9.060;2023-09-19T14:27:20;21.20;99.90
4002;DHT22;2015;48.670;9.060;2023-09-19T14:29:52;21.20;99.90
4002;DHT22;2015;48.670;9.060;2023-09-19T14:32:24;21.10;99.90
4002;DHT22;2015;48.670;9.060;2023-09-19T14:34:56;21.10;99.90
4002;DHT22;2015;48.670;9.060;2023-09-19T14:37:27;21.30;99.90
4002;DHT22;2015;48.670;9.060;2023-09-19T14:40:00;21.30;99.90
4002;DHT22;2015;48.670;9.060;2023-09-19T14:42:32;21.30;99.90
4002;DHT22;2015;48.670;9.060;2023-09-19T14:45:04;21.30;99.90
4002;DHT22;2015;48.670;9.060;2023-09-19T14:47:36;21.40;99.90
4002;DHT22;2015;48.670;9.060;2023-09-19T14:50:09;21.30;99.90
4002;DHT22;2015;48.670;9.060;2023-09-19T14:52:42;21.40;99.90
4002;DHT22;2015;48.670;9.060;2023-09-19T14:55:14;21.30;99.90
4002;DHT22;2015;48.670;9.060;2023-09-19T14:57:49;21.30;99.90
4002;DHT22;2015;48.670;9.060;2023-09-19T15:00:23;21.20;99.90
4002;DHT22;2015;48.670;9.060;2023-09-19T15:02:55;21.20;99.90
4002;DHT22;2015;48.670;9.060;2023-09-19T15:05:28;21.20;99.90
4002;DHT22;2015;48.670;9.060;2023-09-19T15:08:02;21.20;99.90
4002;DHT22;2015;48.670;9.060;2023-09-19T15:10:34;21.10;99.90
4002;DHT22;2015;48.670;9.060;2023-09-19T15:13:06;21.00;99.90
4002;DHT22;2015;48.670;9.060;2023-09-19T15:15:38;20.90;99.90
4002;DHT22;2015;48.670;9.060;2023-09-19T15:18:09;21.00;99.90
4002;DHT22;2015;48.670;9.060;2023-09-19T15:20:44;21.00;99.90
4002;DHT22;2015;48.670;9.060;2023-09-19T15:23:16;21.00;99.90
4002;DHT22;2015;48.670;9.060;2023-09-19T15:25:50;20.90;99.90
4002;DHT22;2015;48.670;9.060;2023-09-19T15:28:22;21.00;99.90
4002;DHT22;2015;48.670;9.060;2023-09-19T15:30:59;20.90;99.90
4002;DHT22;2015;48.670;9.060;2023-09-19T15:33:31;20.80;99.90
4002;DHT22;2015;48.670;9.060;2023-09-19T15:36:07;20.70;99.90
4002;DHT22;2015;48.670;9.060;2023-09-19T15:41:33;20.60;99.90
4002;DHT22;2015;48.670;9.060;2023-09-19T15:44:12;20.60;99.90
4002;DHT22;2015;48.670;9.060;2023-09-19T15:46:45;20.60;99.90
4002;DHT22;2015;48.670;9.060;2023-09-19T15:49:18;20.50;99.90
4002;DHT22;2015;48.670;9.060;2023-09-19T15:51:49;20.50;99.90
4002;DHT22;2015;48.670;9.060;2023-09-19T15:54:21;20.40;99.90
4002;DHT22;2015;48.670;9.060;2023-09-19T15:56:53;20.40;99.90
4002;DHT22;2015;48.670;9.060;2023-09-19T15:59:26;20.30;99.90
4002;DHT22;2015;48.670;9.060;2023-09-19T16:01:58;20.20;99.90
4002;DHT22;2015;48.670;9.060;2023-09-19T16:04:30;20.20;99.90
4002;DHT22;2015;48.670;9.060;2023-09-19T16:07:05;20.20;99.90
4002;DHT22;2015;48.670;9.060;2023-09-19T16:09:38;20.10;99.90
4002;DHT22;2015;48.670;9.060;2023-09-19T16:12:10;20.10;99.90
4002;DHT22;2015;48.670;9.060;2023-09-19T16:14:42;20.10;99.90
4002;DHT22;2015;48.670;9.060;2023-09-19T16:17:14;20.00;99.90
4002;DHT22;2015;48.670;9.060;2023-09-19T16:19:46;20.00;99.90
4002;DHT22;2015;48.670;9.060;2023-09-19T16:22:18;19.80;99.90
4002;DHT22;2015;48.670;9.060;2023-09-19T16:24:50;19.90;99.90
4002;DHT22;2015;48.670;9.060;2023-09-19T16:27:22;19.90;99.90
4002;DHT22;2015;48.670;9.060;2023-09-19T16:29:54;19.80;99.90
4002;DHT22;2015;48.670;9.060;2023-09-19T16:32:26;19.80;99.90
4002;DHT22;2015;48.670;9.060;2023-09-19T16:34:58;19.80;99.90
4002;DHT22;2015;48.670;9.060;2023-09-19T16:37:30;19.80;99.90
4002;DHT22;2015;48.670;9.060;2023-09-19T16:40:02;19.60;99.90
4002;DHT22;2015;48.670;9.060;2023-09-19T16:42:35;19.40;99.90
4002;DHT22;2015;48.670;9.060;2023-09-19T16:45:10;19.20;99.90
4002;DHT22;2015;48.670;9.060;2023-09-19T16:47:42;19.00;99.90
4002;DHT22;2015;48.670;9.060;2023-09-19T16:50:14;18.90;99.90
4002;DHT22;2015;48.670;9.060;2023-09-19T16:52:46;18.90;99.90
4002;DHT22;2015;48.670;9.060;2023-09-19T16:55:18;18.80;99.90
4002;DHT22;2015;48.670;9.060;2023-09-19T16:57:52;18.70;99.90
4002;DHT22;2015;48.670;9.060;2023-09-19T17:00:24;18.60;99.90
4002;DHT22;2015;48.670;9.060;2023-09-19T17:02:57;18.50;99.90
4002;DHT22;2015;48.670;9.060;2023-09-19T17:05:30;18.40;99.90
4002;DHT22;2015;48.670;9.060;2023-09-19T17:08:03;18.30;99.90
4002;DHT22;2015;48.670;9.060;2023-09-19T17:10:36;18.30;99.90
4002;DHT22;2015;48.670;9.060;2023-09-19T17:13:08;18.20;99.90
4002;DHT22;2015;48.670;9.060;2023-09-19T17:15:40;18.10;99.90
4002;DHT22;2015;48.670;9.060;2023-09-19T17:18:12;18.10;99.90
4002;DHT22;2015;48.670;9.060;2023-09-19T17:20:43;18.00;99.90